createdAt,value
2019-01-26T00:01:09.226Z,8.50
2019-01-26T00:03:37.479Z,8.00
2019-01-26T00:06:05.753Z,10.67
2019-01-26T00:08:34.641Z,9.40
2019-01-26T00:11:02.887Z,8.20
2019-01-26T00:13:31.120Z,8.00
2019-01-26T00:15:59.368Z,7.93
2019-01-26T00:18:27.606Z,7.83
2019-01-26T00:20:55.861Z,7.73
2019-01-26T00:23:24.088Z,8.73
2019-01-26T00:25:53.017Z,8.17
2019-01-26T00:28:21.240Z,6.17
2019-01-26T00:30:49.509Z,7.23
2019-01-26T00:33:17.743Z,7.17
2019-01-26T00:35:45.985Z,8.07
2019-01-26T00:38:14.240Z,6.87
2019-01-26T00:40:42.503Z,6.50
2019-01-26T00:43:10.728Z,7.80
2019-01-26T00:45:38.977Z,7.00
2019-01-26T00:48:07.209Z,7.17
2019-01-26T00:50:35.449Z,8.23
2019-01-26T00:53:03.681Z,7.17
2019-01-26T00:55:31.929Z,7.70
2019-01-26T00:58:00.193Z,9.83
2019-01-26T01:00:28.446Z,8.73
2019-01-26T01:02:56.699Z,7.93
2019-01-26T01:05:24.945Z,6.17
2019-01-26T01:07:53.276Z,7.63
2019-01-26T01:10:21.515Z,6.27
2019-01-26T01:12:49.767Z,7.60
2019-01-26T01:15:19.837Z,7.00
2019-01-26T01:17:48.779Z,8.03
2019-01-26T01:20:17.027Z,7.30
2019-01-26T01:22:45.293Z,7.47
2019-01-26T01:25:13.793Z,6.77
2019-01-26T01:27:42.030Z,7.00
2019-01-26T01:30:19.209Z,7.87
2019-01-26T01:32:47.452Z,6.07
2019-01-26T01:35:15.681Z,5.70
2019-01-26T01:37:43.928Z,5.93
2019-01-26T01:40:14.309Z,6.97
2019-01-26T01:42:42.581Z,7.10
2019-01-26T01:45:14.197Z,6.83
2019-01-26T01:47:42.471Z,6.20
2019-01-26T01:50:10.740Z,5.20
2019-01-26T01:52:39.022Z,5.50
2019-01-26T01:55:09.445Z,7.00
2019-01-26T01:57:37.693Z,6.23
2019-01-26T02:00:09.202Z,5.83
2019-01-26T02:02:37.514Z,7.77
2019-01-26T02:05:06.807Z,6.87
2019-01-26T02:07:36.680Z,7.23
2019-01-26T02:10:08.052Z,7.40
2019-01-26T02:12:36.301Z,6.80
2019-01-26T02:15:06.733Z,6.50
2019-01-26T02:17:35.041Z,7.17
2019-01-26T02:20:05.718Z,5.50
2019-01-26T02:22:33.989Z,5.03
2019-01-26T02:25:02.237Z,4.93
2019-01-26T02:27:30.476Z,6.17
2019-01-26T02:30:00.387Z,5.77
2019-01-26T02:32:28.682Z,6.37
2019-01-26T02:34:56.913Z,5.90
2019-01-26T02:37:25.165Z,5.53
2019-01-26T02:39:53.394Z,4.50
2019-01-26T02:42:21.638Z,4.73
2019-01-26T02:44:49.918Z,4.87
2019-01-26T02:47:18.149Z,6.50
2019-01-26T02:49:46.391Z,4.30
2019-01-26T02:52:14.629Z,5.40
2019-01-26T02:54:42.860Z,6.07
2019-01-26T02:57:11.113Z,4.00
2019-01-26T02:59:39.341Z,6.37
2019-01-26T03:02:07.570Z,4.60
2019-01-26T03:04:35.810Z,5.80
2019-01-26T03:07:04.214Z,4.77
2019-01-26T03:09:32.471Z,6.73
2019-01-26T03:12:00.699Z,5.40
2019-01-26T03:14:29.013Z,6.40
2019-01-26T03:16:57.266Z,4.70
2019-01-26T03:19:25.533Z,4.47
2019-01-26T03:21:53.776Z,5.03
2019-01-26T03:24:22.017Z,4.57
2019-01-26T03:26:50.261Z,5.63
2019-01-26T03:29:18.820Z,4.63
2019-01-26T03:31:47.059Z,5.20
2019-01-26T03:34:15.309Z,4.87
2019-01-26T03:36:43.546Z,5.30
2019-01-26T03:39:11.819Z,3.63
2019-01-26T03:41:40.070Z,3.87
2019-01-26T03:44:08.364Z,5.07
2019-01-26T03:46:36.597Z,3.73
2019-01-26T03:49:04.837Z,4.30
2019-01-26T03:51:33.747Z,3.70
2019-01-26T03:54:02.001Z,4.03
2019-01-26T03:56:30.234Z,3.80
2019-01-26T03:58:59.248Z,5.27
2019-01-26T04:01:27.483Z,6.87
2019-01-26T04:03:55.742Z,5.50
2019-01-26T04:06:23.978Z,4.40
2019-01-26T04:08:52.873Z,4.27
2019-01-26T04:11:21.118Z,3.97
2019-01-26T04:13:49.353Z,5.57
2019-01-26T04:16:17.599Z,4.90
2019-01-26T04:18:46.407Z,4.07
2019-01-26T04:21:14.660Z,5.60
2019-01-26T04:23:42.930Z,6.53
2019-01-26T04:26:11.214Z,4.13
2019-01-26T04:28:39.446Z,4.37
2019-01-26T04:31:07.685Z,6.67
2019-01-26T04:33:35.914Z,4.63
2019-01-26T04:36:04.153Z,6.67
2019-01-26T04:38:32.381Z,5.70
2019-01-26T04:41:00.809Z,3.33
2019-01-26T04:43:29.053Z,5.00
2019-01-26T04:45:57.317Z,4.33
2019-01-26T04:48:25.528Z,4.37
2019-01-26T04:50:53.773Z,4.03
2019-01-26T04:53:22.008Z,6.87
2019-01-26T04:55:50.253Z,4.00
2019-01-26T04:58:18.497Z,4.63
2019-01-26T05:00:46.748Z,3.33
2019-01-26T05:03:14.978Z,4.03
2019-01-26T05:05:43.225Z,3.90
2019-01-26T05:08:11.456Z,3.77
2019-01-26T05:10:39.705Z,3.37
2019-01-26T05:13:07.929Z,2.93
2019-01-26T05:15:36.157Z,3.10
2019-01-26T05:18:04.409Z,4.23
2019-01-26T05:20:32.945Z,4.07
2019-01-26T05:23:01.198Z,3.67
2019-01-26T05:25:29.425Z,4.03
2019-01-26T05:27:57.673Z,3.07
2019-01-26T05:30:27.158Z,4.13
2019-01-26T05:32:55.399Z,4.00
2019-01-26T05:35:23.638Z,3.57
2019-01-26T05:37:51.881Z,4.00
2019-01-26T05:40:20.378Z,3.63
2019-01-26T05:42:48.620Z,3.97
2019-01-26T05:45:18.990Z,3.00
2019-01-26T05:47:48.588Z,3.40
2019-01-26T05:50:19.796Z,4.23
2019-01-26T05:52:48.120Z,2.97
2019-01-26T05:55:16.347Z,2.60
2019-01-26T05:57:44.596Z,4.10
2019-01-26T06:00:16.556Z,3.23
2019-01-26T06:02:44.805Z,3.53
2019-01-26T06:05:13.042Z,3.27
2019-01-26T06:07:41.285Z,3.57
2019-01-26T06:10:09.522Z,3.03
2019-01-26T06:12:38.437Z,3.00
2019-01-26T06:15:09.616Z,3.20
2019-01-26T06:17:37.858Z,3.73
2019-01-26T06:20:09.439Z,6.53
2019-01-26T06:22:37.722Z,4.30
2019-01-26T06:25:08.956Z,3.67
2019-01-26T06:27:37.223Z,3.20
2019-01-26T06:30:08.718Z,3.80
2019-01-26T06:32:36.960Z,3.10
2019-01-26T06:35:06.439Z,2.93
2019-01-26T06:37:35.344Z,3.60
2019-01-26T06:40:05.622Z,2.77
2019-01-26T06:42:33.854Z,3.97
2019-01-26T06:45:02.110Z,3.67
2019-01-26T06:47:30.333Z,2.83
2019-01-26T06:49:58.576Z,3.77
2019-01-26T06:52:26.812Z,3.13
2019-01-26T06:54:55.057Z,2.27
2019-01-26T06:57:23.285Z,3.37
2019-01-26T06:59:51.537Z,3.73
2019-01-26T07:02:19.773Z,2.17
2019-01-26T07:04:49.655Z,2.57
2019-01-26T07:07:17.897Z,2.20
2019-01-26T07:09:46.181Z,4.30
2019-01-26T07:12:14.465Z,6.90
2019-01-26T07:14:42.706Z,3.53
2019-01-26T07:17:10.949Z,3.23
2019-01-26T07:19:39.193Z,2.43
2019-01-26T07:22:07.434Z,3.33
2019-01-26T07:24:35.684Z,3.10
2019-01-26T07:27:03.910Z,2.40
2019-01-26T07:29:32.836Z,3.10
2019-01-26T07:32:01.062Z,3.57
2019-01-26T07:34:29.306Z,3.37
2019-01-26T07:36:57.541Z,2.53
2019-01-26T07:39:25.858Z,2.67
2019-01-26T07:41:54.104Z,2.83
2019-01-26T07:44:22.338Z,2.70
2019-01-26T07:46:50.878Z,2.13
2019-01-26T07:49:19.122Z,2.90
2019-01-26T07:51:47.350Z,3.40
2019-01-26T07:54:15.593Z,3.23
2019-01-26T07:56:43.830Z,3.93
2019-01-26T07:59:12.629Z,2.43
2019-01-26T08:01:40.877Z,2.77
2019-01-26T08:04:09.105Z,2.50
2019-01-26T08:06:38.984Z,2.93
2019-01-26T08:09:07.685Z,6.73
2019-01-26T08:11:36.073Z,15.97
2019-01-26T08:14:05.216Z,16.40
2019-01-26T08:16:33.457Z,15.17
2019-01-26T08:19:01.693Z,12.30
2019-01-26T08:21:30.514Z,19.55
2019-01-26T08:23:58.752Z,22.53
2019-01-26T08:26:27.009Z,11.17
2019-01-26T08:28:55.250Z,10.20
2019-01-26T08:31:23.490Z,12.53
2019-01-26T08:33:51.730Z,13.03
2019-01-26T08:36:19.981Z,11.63
2019-01-26T08:38:48.218Z,10.47
2019-01-26T08:41:16.470Z,6.30
2019-01-26T08:43:44.713Z,7.83
2019-01-26T08:46:12.953Z,4.87
2019-01-26T08:48:41.193Z,6.67
2019-01-26T08:51:09.454Z,5.47
2019-01-26T08:53:38.262Z,8.03
2019-01-26T08:56:06.510Z,6.77
2019-01-26T08:58:34.742Z,9.93
2019-01-26T09:01:02.985Z,7.03
2019-01-26T09:03:44.829Z,4.80
2019-01-26T09:06:14.713Z,7.50
2019-01-26T09:08:42.948Z,6.73
2019-01-26T09:11:11.203Z,9.97
2019-01-26T09:13:39.432Z,8.10
2019-01-26T09:16:07.700Z,14.73
2019-01-26T09:18:38.955Z,6.37
2019-01-26T09:21:05.885Z,7.80
2019-01-26T09:23:34.130Z,4.00
2019-01-26T09:26:02.364Z,5.43
2019-01-26T09:28:30.669Z,6.33
2019-01-26T09:30:58.901Z,9.77
2019-01-26T09:33:27.150Z,5.10
2019-01-26T09:35:55.385Z,6.93
2019-01-26T09:38:23.631Z,3.93
2019-01-26T09:40:51.861Z,6.80
2019-01-26T09:43:20.105Z,7.53
2019-01-26T09:45:48.336Z,7.27
2019-01-26T09:48:16.582Z,8.20
2019-01-26T09:50:44.818Z,7.87
2019-01-26T09:53:13.118Z,4.00
2019-01-26T09:55:41.357Z,8.97
2019-01-26T09:58:09.602Z,25.17
2019-01-26T10:00:37.842Z,7.97
2019-01-26T10:03:06.377Z,7.20
2019-01-26T10:05:34.618Z,8.27
2019-01-26T10:08:02.853Z,8.90
2019-01-26T10:10:31.422Z,8.93
2019-01-26T10:12:59.657Z,8.57
2019-01-26T10:15:30.109Z,9.83
2019-01-26T10:17:58.354Z,5.90
2019-01-26T10:20:29.605Z,8.47
2019-01-26T10:22:57.837Z,9.93
2019-01-26T10:25:26.077Z,7.70
2019-01-26T10:27:54.320Z,7.23
2019-01-26T10:30:29.866Z,8.53
2019-01-26T10:32:58.105Z,9.00
2019-01-26T10:35:27.985Z,8.60
2019-01-26T10:37:56.789Z,7.17
2019-01-26T10:40:26.673Z,4.43
2019-01-26T10:42:54.912Z,5.47
2019-01-26T10:45:23.149Z,4.67
2019-01-26T10:47:51.385Z,4.73
2019-01-26T10:50:19.629Z,5.20
2019-01-26T10:52:47.868Z,8.50
2019-01-26T10:55:17.733Z,6.53
2019-01-26T10:57:45.968Z,7.83
2019-01-26T11:00:17.181Z,7.47
2019-01-26T11:02:45.418Z,5.60
2019-01-26T11:05:13.661Z,3.63
2019-01-26T11:07:41.893Z,6.10
2019-01-26T11:10:13.082Z,4.57
2019-01-26T11:12:41.312Z,5.70
2019-01-26T11:15:11.654Z,7.30
2019-01-26T11:17:39.893Z,11.73
2019-01-26T11:20:15.805Z,6.53
2019-01-26T11:22:44.034Z,5.20
2019-01-26T11:25:13.025Z,4.30
2019-01-26T11:27:41.545Z,6.63
2019-01-26T11:30:12.178Z,3.70
2019-01-26T11:32:40.411Z,9.03
2019-01-26T11:35:14.127Z,6.87
2019-01-26T11:37:42.371Z,5.20
2019-01-26T11:40:12.809Z,6.97
2019-01-26T11:42:41.033Z,6.07
2019-01-26T11:45:19.745Z,5.33
2019-01-26T11:47:47.983Z,8.17
2019-01-26T11:50:24.078Z,7.57
2019-01-26T11:52:52.318Z,9.20
2019-01-26T11:55:24.900Z,4.40
2019-01-26T11:57:54.709Z,9.77
2019-01-26T12:00:40.952Z,9.83
2019-01-26T12:03:10.830Z,8.57
2019-01-26T12:05:43.934Z,8.47
2019-01-26T12:08:12.167Z,6.27
2019-01-26T12:10:40.414Z,10.43
2019-01-26T12:13:08.648Z,5.83
2019-01-26T12:15:36.885Z,7.03
2019-01-26T12:18:05.130Z,6.07
2019-01-26T12:20:33.365Z,15.33
2019-01-26T12:23:02.181Z,11.73
2019-01-26T12:25:30.421Z,10.00
2019-01-26T12:27:58.668Z,9.60
2019-01-26T12:30:26.898Z,8.37
2019-01-26T12:32:55.142Z,8.93
2019-01-26T12:35:23.373Z,7.60
2019-01-26T12:37:51.618Z,6.70
2019-01-26T12:40:20.424Z,7.57
2019-01-26T12:42:48.672Z,6.87
2019-01-26T12:45:19.245Z,6.93
2019-01-26T12:47:47.494Z,5.00
2019-01-26T12:50:15.725Z,7.07
2019-01-26T12:52:43.964Z,6.63
2019-01-26T12:55:17.284Z,7.93
2019-01-26T12:57:45.801Z,7.07
2019-01-26T13:00:25.428Z,6.63
2019-01-26T13:02:53.663Z,6.30
2019-01-26T13:05:22.174Z,7.37
2019-01-26T13:07:50.409Z,7.00
2019-01-26T13:10:30.806Z,5.40
2019-01-26T13:12:59.052Z,4.93
2019-01-26T13:15:27.301Z,12.97
2019-01-26T13:17:55.866Z,12.03
2019-01-26T13:20:24.101Z,9.03
2019-01-26T13:22:52.342Z,6.67
2019-01-26T13:25:21.183Z,10.23
2019-01-26T13:27:49.410Z,5.83
2019-01-26T13:30:20.445Z,7.90
2019-01-26T13:32:48.684Z,8.40
2019-01-26T13:35:16.922Z,9.07
2019-01-26T13:37:45.169Z,5.97
2019-01-26T13:40:16.363Z,10.00
2019-01-26T13:42:44.609Z,6.87
2019-01-26T13:45:14.781Z,4.73
2019-01-26T13:47:43.021Z,7.77
2019-01-26T13:50:12.205Z,8.13
2019-01-26T13:52:40.438Z,4.83
2019-01-26T13:55:17.165Z,4.37
2019-01-26T13:57:45.398Z,5.67
2019-01-26T14:00:20.322Z,3.50
2019-01-26T14:02:49.125Z,5.13
2019-01-26T14:05:17.646Z,5.63
2019-01-26T14:07:45.881Z,4.13
2019-01-26T14:10:20.412Z,7.77
2019-01-26T14:12:48.762Z,3.97
2019-01-26T14:15:18.452Z,8.93
2019-01-26T14:17:46.691Z,4.50
2019-01-26T14:20:19.821Z,5.63
2019-01-26T14:22:48.061Z,4.93
2019-01-26T14:25:17.346Z,5.10
2019-01-26T14:27:45.741Z,6.03
2019-01-26T14:30:32.020Z,4.97
2019-01-26T14:33:00.249Z,4.40
2019-01-26T14:35:28.501Z,6.30
2019-01-26T14:37:56.749Z,4.33
2019-01-26T14:40:25.093Z,5.90
2019-01-26T14:42:54.510Z,5.03
2019-01-26T14:45:23.052Z,4.83
2019-01-26T14:47:51.285Z,5.93
2019-01-26T14:50:19.813Z,4.87
2019-01-26T14:52:48.609Z,7.67
2019-01-26T14:55:28.641Z,5.80
2019-01-26T14:57:57.437Z,6.03
2019-01-26T15:00:38.509Z,6.73
2019-01-26T15:03:06.737Z,5.57
2019-01-26T15:05:34.985Z,5.97
2019-01-26T15:08:03.224Z,7.80
2019-01-26T15:10:31.470Z,7.33
2019-01-26T15:12:59.701Z,8.47
2019-01-26T15:15:27.949Z,8.13
2019-01-26T15:17:56.177Z,6.57
2019-01-26T15:20:30.198Z,6.67
2019-01-26T15:22:58.429Z,5.70
2019-01-26T15:25:26.678Z,6.60
2019-01-26T15:27:54.917Z,5.97
2019-01-26T15:30:37.833Z,7.13
2019-01-26T15:33:06.410Z,6.07
2019-01-26T15:35:34.649Z,8.20
2019-01-26T15:38:02.882Z,4.00
2019-01-26T15:40:31.693Z,8.30
2019-01-26T15:42:59.930Z,5.60
2019-01-26T15:45:31.514Z,4.57
2019-01-26T15:47:59.752Z,3.53
2019-01-26T15:50:27.993Z,4.43
2019-01-26T15:52:56.229Z,4.43
2019-01-26T15:55:25.914Z,6.63
2019-01-26T15:57:54.145Z,3.07
2019-01-26T16:00:33.544Z,3.10
2019-01-26T16:03:01.778Z,5.83
2019-01-26T16:05:30.021Z,3.33
2019-01-26T16:07:58.267Z,3.27
2019-01-26T16:10:26.516Z,5.40
2019-01-26T16:12:54.746Z,4.33
2019-01-26T16:15:28.608Z,3.50
2019-01-26T16:17:56.910Z,5.17
2019-01-26T16:20:25.157Z,2.27
2019-01-26T16:22:53.389Z,4.30
2019-01-26T16:25:21.639Z,3.10
2019-01-26T16:27:49.904Z,3.23
2019-01-26T16:30:20.997Z,2.73
2019-01-26T16:32:49.229Z,10.10
2019-01-26T16:35:18.221Z,2.90
2019-01-26T16:37:46.466Z,3.50
2019-01-26T16:40:29.481Z,3.93
2019-01-26T16:42:57.718Z,3.37
2019-01-26T16:45:31.602Z,3.93
2019-01-26T16:47:59.839Z,2.67
2019-01-26T16:50:29.926Z,1.97
2019-01-26T16:52:58.157Z,1.50
2019-01-26T16:55:26.394Z,4.20
2019-01-26T16:57:54.636Z,2.97
2019-01-26T17:00:28.925Z,3.63
2019-01-26T17:02:57.169Z,2.27
2019-01-26T17:05:25.913Z,2.70
2019-01-26T17:07:54.318Z,2.37
2019-01-26T17:10:22.554Z,1.53
2019-01-26T17:12:50.797Z,3.47
2019-01-26T17:15:19.024Z,1.77
2019-01-26T17:17:47.270Z,2.67
2019-01-26T17:20:24.177Z,2.43
2019-01-26T17:22:52.417Z,2.87
2019-01-26T17:25:20.652Z,4.47
2019-01-26T17:27:48.965Z,1.83
2019-01-26T17:30:22.649Z,1.60
2019-01-26T17:32:50.895Z,2.97
2019-01-26T17:35:19.125Z,1.83
2019-01-26T17:37:47.374Z,1.50
2019-01-26T17:40:18.313Z,2.60
2019-01-26T17:42:46.554Z,2.37
2019-01-26T17:45:16.322Z,2.47
2019-01-26T17:47:45.200Z,3.40
2019-01-26T17:50:24.831Z,1.43
2019-01-26T17:52:53.076Z,2.60
2019-01-26T17:55:21.314Z,3.33
2019-01-26T17:57:49.628Z,0.93
2019-01-26T18:00:27.979Z,2.03
2019-01-26T18:02:56.221Z,2.67
2019-01-26T18:05:24.453Z,4.60
2019-01-26T18:07:52.704Z,4.10
2019-01-26T18:10:25.130Z,7.53
2019-01-26T18:12:53.377Z,10.40
2019-01-26T18:15:21.614Z,6.30
2019-01-26T18:17:49.861Z,8.40
2019-01-26T18:20:23.096Z,14.33
2019-01-26T18:22:51.350Z,6.97
2019-01-26T18:25:19.585Z,8.83
2019-01-26T18:27:47.837Z,10.07
2019-01-26T18:30:22.142Z,4.57
2019-01-26T18:32:50.391Z,6.77
2019-01-26T18:35:18.627Z,4.43
2019-01-26T18:37:46.874Z,4.27
2019-01-26T18:40:18.109Z,12.83
2019-01-26T18:42:47.056Z,7.47
2019-01-26T18:45:17.825Z,8.20
2019-01-26T18:47:46.946Z,5.20
2019-01-26T18:50:20.801Z,5.97
2019-01-26T18:52:49.118Z,2.83
2019-01-26T18:55:17.377Z,4.37
2019-01-26T18:57:45.885Z,4.60
2019-01-26T19:00:19.797Z,4.20
2019-01-26T19:02:50.871Z,4.67
2019-01-26T19:05:21.649Z,3.37
2019-01-26T19:07:49.923Z,3.27
2019-01-26T19:10:18.161Z,3.57
2019-01-26T19:12:46.397Z,3.37
2019-01-26T19:15:20.102Z,6.33
2019-01-26T19:17:48.355Z,6.13
2019-01-26T19:20:17.260Z,4.20
2019-01-26T19:22:45.490Z,2.60
2019-01-26T19:25:16.169Z,2.93
2019-01-26T19:27:44.470Z,4.57
2019-01-26T19:30:15.261Z,2.80
2019-01-26T19:32:43.510Z,4.33
2019-01-26T19:35:11.817Z,2.23
2019-01-26T19:37:40.065Z,2.90
2019-01-26T19:40:11.706Z,3.60
2019-01-26T19:42:39.937Z,2.20
2019-01-26T19:45:11.221Z,4.73
2019-01-26T19:47:40.025Z,4.07
2019-01-26T19:50:11.606Z,2.43
2019-01-26T19:52:39.853Z,2.53
2019-01-26T19:55:08.092Z,3.13
2019-01-26T19:57:36.325Z,1.47
2019-01-26T20:00:07.269Z,3.30
2019-01-26T20:02:35.497Z,2.90
2019-01-26T20:05:05.936Z,2.23
2019-01-26T20:07:34.178Z,2.33
2019-01-26T20:10:03.292Z,2.97
2019-01-26T20:12:31.521Z,2.13
2019-01-26T20:14:59.769Z,1.20
2019-01-26T20:17:28.001Z,1.97
2019-01-26T20:19:56.253Z,3.53
2019-01-26T20:22:24.482Z,2.67
2019-01-26T20:24:52.721Z,3.07
2019-01-26T20:27:20.961Z,1.87
2019-01-26T20:29:49.200Z,2.03
2019-01-26T20:32:17.442Z,3.10
2019-01-26T20:34:45.673Z,4.07
2019-01-26T20:37:13.926Z,3.97
2019-01-26T20:39:42.157Z,1.63
2019-01-26T20:42:10.400Z,2.90
2019-01-26T20:44:38.633Z,2.00
2019-01-26T20:47:06.877Z,1.50
2019-01-26T20:49:35.112Z,4.30
2019-01-26T20:52:03.357Z,3.03
2019-01-26T20:54:31.596Z,2.63
2019-01-26T20:57:00.127Z,3.00
2019-01-26T20:59:28.357Z,1.87
2019-01-26T21:01:56.601Z,3.57
2019-01-26T21:04:24.841Z,4.20
2019-01-26T21:06:53.083Z,2.33
2019-01-26T21:09:21.365Z,2.33
2019-01-26T21:11:49.636Z,2.17
2019-01-26T21:14:17.867Z,4.13
2019-01-26T21:16:46.115Z,2.20
2019-01-26T21:19:14.425Z,2.20
2019-01-26T21:21:43.342Z,1.70
2019-01-26T21:24:11.570Z,2.90
2019-01-26T21:26:39.829Z,3.60
2019-01-26T21:29:08.065Z,1.63
2019-01-26T21:31:36.305Z,3.37
2019-01-26T21:34:04.551Z,3.20
2019-01-26T21:36:32.794Z,2.10
2019-01-26T21:39:01.030Z,1.90
2019-01-26T21:41:29.274Z,3.03
2019-01-26T21:43:57.506Z,0.97
2019-01-26T21:46:25.756Z,2.00
2019-01-26T21:48:53.999Z,3.50
2019-01-26T21:51:22.240Z,2.80
2019-01-26T21:53:50.478Z,1.80
2019-01-26T21:56:18.725Z,1.37
2019-01-26T21:58:46.953Z,1.93
2019-01-26T22:01:15.185Z,2.80
2019-01-26T22:03:43.501Z,7.97
2019-01-26T22:06:11.728Z,2.53
2019-01-26T22:08:39.974Z,8.30
2019-01-26T22:11:08.208Z,4.87
2019-01-26T22:13:36.445Z,8.27
2019-01-26T22:16:04.682Z,13.83
2019-01-26T22:19:03.843Z,10.90
2019-01-26T22:21:03.587Z,8.63
2019-01-26T22:23:32.295Z,8.97
2019-01-26T22:26:00.525Z,6.53
2019-01-26T22:28:28.774Z,8.83
2019-01-26T22:30:57.014Z,7.83
2019-01-26T22:33:25.259Z,4.50
2019-01-26T22:35:53.489Z,5.07
2019-01-26T22:38:22.069Z,4.80
2019-01-26T22:40:50.304Z,5.17
2019-01-26T22:43:18.542Z,5.00
2019-01-26T22:45:46.793Z,6.50
2019-01-26T22:48:15.044Z,6.57
2019-01-26T22:50:43.273Z,4.10
2019-01-26T22:53:11.533Z,3.63
2019-01-26T22:55:40.004Z,6.03
2019-01-26T22:58:08.320Z,4.40
2019-01-26T23:00:52.425Z,6.97
2019-01-26T23:03:26.782Z,3.03
2019-01-26T23:06:13.134Z,4.23
2019-01-26T23:08:41.377Z,3.93
2019-01-26T23:11:12.982Z,4.00
2019-01-26T23:13:44.370Z,3.00
2019-01-26T23:16:18.640Z,3.57
2019-01-26T23:19:10.596Z,4.13
2019-01-26T23:21:57.004Z,3.70
2019-01-26T23:24:31.402Z,6.10
2019-01-26T23:27:02.940Z,3.07
2019-01-26T23:29:37.340Z,5.27
2019-01-26T23:32:05.606Z,3.07
2019-01-26T23:34:34.525Z,3.40
2019-01-26T23:37:02.762Z,4.43
2019-01-26T23:39:31.271Z,3.50
2019-01-26T23:41:59.498Z,2.47
2019-01-26T23:44:27.744Z,3.17
2019-01-26T23:46:55.982Z,2.30
2019-01-26T23:49:24.213Z,2.50
2019-01-26T23:51:52.625Z,2.27
2019-01-26T23:54:21.530Z,3.00
2019-01-26T23:56:49.777Z,2.93
2019-01-26T23:59:18.009Z,2.37
